Time;durP1;ratioP1;P1;durP2;ratioP2;P2;SDS_P1;SDS_P2;PMS_P1;PMS_P2;Temp;Humidity;BMP_temperature;BMP_pressure;BME280_temperature;BME280_humidity;BME280_pressure;Samples;Min_cycle;Max_cycle;Signal;HPM_P1;HPM_P2
2022/09/01 00:02:14;;;;;;;3.80;1.60;;;;;;;;;;4920874;29;20494;-50
2022/09/01 00:04:43;;;;;;;3.33;1.80;;;;;;;;;;4937967;29;20035;-51
2022/09/01 00:07:10;;;;;;;3.17;1.48;;;;;;;;;;4937992;29;20412;-52
2022/09/01 00:09:36;;;;;;;3.75;1.73;;;;;;;;;;4937790;29;20539;-49
2022/09/01 00:12:03;;;;;;;1.80;1.40;;;;;;;;;;4937839;29;20031;-53
2022/09/01 00:14:32;;;;;;;3.53;1.60;;;;;;;;;;4937815;29;20107;-51
2022/09/01 00:17:03;;;;;;;4.00;1.63;;;;;;;;;;4937744;29;20388;-51
2022/09/01 00:19:28;;;;;;;7.53;2.10;;;;;;;;;;4937477;29;20027;-49
2022/09/01 00:21:54;;;;;;;3.47;1.63;;;;;;;;;;4937695;29;20023;-53
2022/09/01 00:24:20;;;;;;;6.60;1.90;;;;;;;;;;4937366;29;20385;-44
2022/09/01 00:26:46;;;;;;;3.63;1.90;;;;;;;;;;4937627;29;20072;-43
2022/09/01 00:29:12;;;;;;;3.83;1.85;;;;;;;;;;4937252;29;20190;-43
2022/09/01 00:31:38;;;;;;;3.88;1.70;;;;;;;;;;4937295;29;20035;-47
2022/09/01 00:34:04;;;;;;;2.22;1.73;;;;;;;;;;4936286;29;20024;-43
2022/09/01 00:36:29;;;;;;;2.85;1.90;;;;;;;;;;4937358;29;20514;-44
2022/09/01 00:38:55;;;;;;;2.38;2.13;;;;;;;;;;4937136;29;20111;-43
2022/09/01 00:41:23;;;;;;;2.95;2.15;;;;;;;;;;4937092;29;20027;-53
2022/09/01 00:43:51;;;;;;;2.75;2.08;;;;;;;;;;4937305;29;20380;-48
2022/09/01 00:46:24;;;;;;;4.40;2.05;;;;;;;;;;4937042;29;20030;-48
2022/09/01 00:49:05;;;;;;;4.22;2.10;;;;;;;;;;4937065;29;20046;-42
2022/09/01 00:51:33;;;;;;;2.47;1.95;;;;;;;;;;4936854;29;20024;-43
2022/09/01 00:54:00;;;;;;;4.63;1.90;;;;;;;;;;4935974;29;20156;-43
2022/09/01 00:56:27;;;;;;;3.28;1.98;;;;;;;;;;4936693;29;20035;-42
2022/09/01 00:58:53;;;;;;;3.80;1.90;;;;;;;;;;4936740;29;20023;-43
2022/09/01 01:01:19;;;;;;;5.28;1.88;;;;;;;;;;4936996;29;20031;-51
2022/09/01 01:03:45;;;;;;;4.30;2.00;;;;;;;;;;4936736;29;20115;-49
2022/09/01 01:06:14;;;;;;;4.55;2.28;;;;;;;;;;4936577;29;20039;-44
2022/09/01 01:08:55;;;;;;;5.15;1.92;;;;;;;;;;4936789;29;20052;-43
2022/09/01 01:11:21;;;;;;;4.90;2.00;;;;;;;;;;4936824;29;20028;-43
2022/09/01 01:13:48;;;;;;;4.00;1.77;;;;;;;;;;4936745;29;20023;-43
2022/09/01 01:16:14;;;;;;;2.47;1.90;;;;;;;;;;4936560;29;20031;-44
2022/09/01 01:18:41;;;;;;;2.58;1.80;;;;;;;;;;4936618;29;20027;-43
2022/09/01 01:24:18;;;;;;;8.82;1.90;;;;;;;;;;4936580;29;20031;-43
2022/09/01 01:26:44;;;;;;;3.22;2.10;;;;;;;;;;4936771;29;20039;-43
2022/09/01 01:29:10;;;;;;;2.47;1.70;;;;;;;;;;4936441;29;20104;-44
2022/09/01 01:31:36;;;;;;;5.15;1.67;;;;;;;;;;4936189;29;20023;-43
2022/09/01 01:34:05;;;;;;;4.55;1.98;;;;;;;;;;4936362;29;20481;-45
2022/09/01 01:36:35;;;;;;;2.60;1.80;;;;;;;;;;4935945;29;20027;-43
2022/09/01 01:39:06;;;;;;;2.90;1.80;;;;;;;;;;4935999;29;20031;-44
2022/09/01 01:41:34;;;;;;;4.53;1.50;;;;;;;;;;4936242;29;20035;-44
2022/09/01 01:44:03;;;;;;;2.10;1.42;;;;;;;;;;4935949;29;20079;-44
2022/09/01 01:46:29;;;;;;;1.70;1.60;;;;;;;;;;4935613;29;20028;-47
2022/09/01 01:48:55;;;;;;;3.20;1.80;;;;;;;;;;4935713;29;20071;-43
2022/09/01 01:51:27;;;;;;;4.72;1.70;;;;;;;;;;4936035;29;20558;-43
2022/09/01 01:53:54;;;;;;;0.80;0.80;;;;;;;;;;4935773;29;20024;-48
2022/09/01 01:56:24;;;;;;;1.92;1.42;;;;;;;;;;4936187;29;20130;-49
2022/09/01 01:58:55;;;;;;;;;;;;;;;;;;4936411;29;20039;-47
2022/09/01 02:01:27;;;;;;;1.42;1.27;;;;;;;;;;4935645;29;19914;-50
2022/09/01 02:03:54;;;;;;;3.10;2.10;;;;;;;;;;4935697;29;20042;-49
2022/09/01 02:06:23;;;;;;;1.52;1.42;;;;;;;;;;4935641;29;20023;-48
2022/09/01 02:08:51;;;;;;;5.85;2.53;;;;;;;;;;4935538;29;20024;-47
2022/09/01 02:11:17;;;;;;;2.80;1.98;;;;;;;;;;4935853;29;20341;-43
2022/09/01 02:13:43;;;;;;;3.38;1.85;;;;;;;;;;4935547;29;20027;-42
2022/09/01 02:16:11;;;;;;;4.80;1.67;;;;;;;;;;4935472;29;20029;-42
2022/09/01 02:18:41;;;;;;;1.75;1.50;;;;;;;;;;4935438;29;20036;-43
2022/09/01 02:21:09;;;;;;;1.88;1.23;;;;;;;;;;4935737;29;20028;-44
2022/09/01 02:23:37;;;;;;;3.05;1.45;;;;;;;;;;4935552;29;20035;-45
2022/09/01 02:26:05;;;;;;;4.90;2.25;;;;;;;;;;4935330;29;20384;-42
2022/09/01 02:28:35;;;;;;;5.95;2.45;;;;;;;;;;4935306;29;20495;-42
2022/09/01 02:31:03;;;;;;;3.28;1.60;;;;;;;;;;4935356;29;20043;-43
2022/09/01 02:33:30;;;;;;;2.33;1.73;;;;;;;;;;4935518;29;20028;-46
2022/09/01 02:35:58;;;;;;;2.55;1.92;;;;;;;;;;4933905;29;20491;-42
2022/09/01 02:38:28;;;;;;;3.53;1.95;;;;;;;;;;4935232;29;20472;-42
2022/09/01 02:40:57;;;;;;;2.92;2.20;;;;;;;;;;4935747;29;20032;-42
2022/09/01 02:43:26;;;;;;;2.60;1.92;;;;;;;;;;4935299;29;20357;-42
2022/09/01 02:45:54;;;;;;;2.92;1.92;;;;;;;;;;4935205;29;20039;-45
2022/09/01 02:48:23;;;;;;;2.00;1.70;;;;;;;;;;4935161;29;20380;-46
2022/09/01 02:50:49;;;;;;;4.38;2.17;;;;;;;;;;4935028;29;20074;-46
2022/09/01 02:53:15;;;;;;;4.10;2.38;;;;;;;;;;4935356;29;20051;-48
2022/09/01 02:55:43;;;;;;;5.25;2.08;;;;;;;;;;4935106;29;20477;-47
2022/09/01 02:58:15;;;;;;;9.63;2.40;;;;;;;;;;4937941;29;20062;-46
2022/09/01 03:00:43;;;;;;;4.53;2.22;;;;;;;;;;4939128;29;20027;-49
2022/09/01 03:03:11;;;;;;;5.00;1.73;;;;;;;;;;4938795;29;20026;-48
2022/09/01 03:05:38;;;;;;;2.45;1.67;;;;;;;;;;4938771;29;20032;-48
2022/09/01 03:08:09;;;;;;;6.15;1.50;;;;;;;;;;4939316;29;20043;-47
2022/09/01 03:10:40;;;;;;;1.90;1.70;;;;;;;;;;4938784;29;20027;-46
2022/09/01 03:13:12;;;;;;;3.60;1.60;;;;;;;;;;4938792;29;20059;-49
2022/09/01 03:15:39;;;;;;;2.20;1.58;;;;;;;;;;4938778;29;20063;-46
2022/09/01 03:18:06;;;;;;;3.50;1.85;;;;;;;;;;4938545;29;20083;-44
2022/09/01 03:20:34;;;;;;;2.58;1.42;;;;;;;;;;4938613;29;20107;-45
2022/09/01 03:23:02;;;;;;;1.98;1.38;;;;;;;;;;4938854;29;20115;-46
2022/09/01 03:25:28;;;;;;;2.03;1.35;;;;;;;;;;4938493;29;20043;-47
2022/09/01 03:27:58;;;;;;;2.97;1.42;;;;;;;;;;4937482;29;20036;-49
2022/09/01 03:30:25;;;;;;;1.77;1.30;;;;;;;;;;4937135;29;20020;-48
2022/09/01 03:32:51;;;;;;;1.92;1.73;;;;;;;;;;4938318;29;20059;-50
2022/09/01 03:35:16;;;;;;;1.40;1.30;;;;;;;;;;4938302;29;20118;-48
2022/09/01 03:37:43;;;;;;;1.52;1.08;;;;;;;;;;4938543;29;20036;-42
2022/09/01 03:40:11;;;;;;;1.23;1.13;;;;;;;;;;4938103;29;20060;-45
2022/09/01 03:42:37;;;;;;;1.23;1.00;;;;;;;;;;4938139;29;20028;-49
2022/09/01 03:45:08;;;;;;;1.52;1.27;;;;;;;;;;4938064;29;20476;-51
2022/09/01 03:47:38;;;;;;;;;;;;;;;;;;4938520;29;20028;-47
2022/09/01 03:50:04;;;;;;;1.30;1.20;;;;;;;;;;4937893;29;19919;-47
2022/09/01 03:52:29;;;;;;;2.15;1.75;;;;;;;;;;4938513;29;20036;-52
2022/09/01 03:54:58;;;;;;;1.88;1.73;;;;;;;;;;4937998;29;20424;-48
2022/09/01 03:57:26;;;;;;;4.93;1.42;;;;;;;;;;4938071;29;20035;-49
2022/09/01 03:59:53;;;;;;;1.05;1.05;;;;;;;;;;4937930;29;20027;-47
2022/09/01 04:02:19;;;;;;;1.00;1.00;;;;;;;;;;4937765;29;20027;-48
2022/09/01 04:04:44;;;;;;;3.30;1.55;;;;;;;;;;4938066;29;20156;-52
2022/09/01 04:07:10;;;;;;;3.08;1.70;;;;;;;;;;4937742;28;20188;-48
2022/09/01 04:09:36;;;;;;;2.92;1.42;;;;;;;;;;4937730;29;20078;-52
2022/09/01 04:12:07;;;;;;;1.05;1.05;;;;;;;;;;4937875;29;20028;-48
2022/09/01 04:14:34;;;;;;;2.00;1.50;;;;;;;;;;4937680;29;20024;-49
2022/09/01 04:19:47;;;;;;;2.33;1.00;;;;;;;;;;4937614;29;20039;-42
2022/09/01 04:22:16;;;;;;;1.13;1.02;;;;;;;;;;4937504;29;20031;-42
2022/09/01 04:24:44;;;;;;;4.00;1.73;;;;;;;;;;4937398;29;20108;-43
2022/09/01 04:27:10;;;;;;;0.95;0.93;;;;;;;;;;4937471;29;20032;-42
2022/09/01 04:29:35;;;;;;;1.73;1.40;;;;;;;;;;4937313;29;20094;-43
2022/09/01 04:32:05;;;;;;;1.45;1.20;;;;;;;;;;4937302;29;20034;-45
2022/09/01 04:34:36;;;;;;;1.57;1.23;;;;;;;;;;4937321;29;20035;-49
2022/09/01 04:37:17;;;;;;;1.50;1.25;;;;;;;;;;4937506;29;20392;-45
2022/09/01 04:39:52;;;;;;;2.80;1.48;;;;;;;;;;4937195;29;20603;-42
2022/09/01 04:42:19;;;;;;;1.75;1.50;;;;;;;;;;4937141;29;20028;-43
2022/09/01 04:44:45;;;;;;;1.85;1.70;;;;;;;;;;4936965;29;20483;-51
2022/09/01 04:47:13;;;;;;;1.30;1.15;;;;;;;;;;4936978;29;20383;-45
2022/09/01 04:49:39;;;;;;;2.83;1.10;;;;;;;;;;4936602;29;20566;-49
2022/09/01 04:52:04;;;;;;;3.33;1.77;;;;;;;;;;4937064;29;20110;-47
2022/09/01 04:54:32;;;;;;;1.20;1.10;;;;;;;;;;4937097;29;20028;-45
2022/09/01 04:56:57;;;;;;;3.67;1.60;;;;;;;;;;4936990;29;20035;-42
2022/09/01 04:59:25;;;;;;;4.63;1.33;;;;;;;;;;4936720;29;20432;-48
2022/09/01 05:01:54;;;;;;;1.25;1.15;;;;;;;;;;4936681;29;20032;-45
2022/09/01 05:04:31;;;;;;;1.77;1.52;;;;;;;;;;4935327;29;20383;-46
2022/09/01 05:07:00;;;;;;;2.40;1.55;;;;;;;;;;4936634;29;20506;-46
2022/09/01 05:09:36;;;;;;;2.63;1.30;;;;;;;;;;4936853;29;20019;-44
2022/09/01 05:12:09;;;;;;;2.53;1.75;;;;;;;;;;4936633;29;20042;-42
2022/09/01 05:14:43;;;;;;;1.60;1.50;;;;;;;;;;4936437;29;20496;-49
2022/09/01 05:17:10;;;;;;;5.90;2.60;;;;;;;;;;4936755;29;20106;-47
2022/09/01 05:19:40;;;;;;;5.95;1.80;;;;;;;;;;4935756;29;20035;-47
2022/09/01 05:22:09;;;;;;;2.53;1.70;;;;;;;;;;4936372;29;20075;-43
2022/09/01 05:24:35;;;;;;;2.00;1.50;;;;;;;;;;4935066;29;20063;-47
2022/09/01 05:27:04;;;;;;;1.90;1.40;;;;;;;;;;4936140;29;20111;-48
2022/09/01 05:29:29;;;;;;;1.00;1.00;;;;;;;;;;4936367;29;20060;-51
2022/09/01 05:31:55;;;;;;;2.72;1.52;;;;;;;;;;4936381;29;20032;-47
2022/09/01 05:34:28;;;;;;;6.03;1.48;;;;;;;;;;4936460;29;20035;-45
2022/09/01 05:36:58;;;;;;;2.30;1.65;;;;;;;;;;4936435;29;20020;-49
2022/09/01 05:39:25;;;;;;;5.75;2.40;;;;;;;;;;4936082;29;20058;-48
2022/09/01 05:41:52;;;;;;;3.15;1.92;;;;;;;;;;4935745;29;20032;-44
2022/09/01 05:44:21;;;;;;;5.38;2.00;;;;;;;;;;4934509;29;20122;-41
2022/09/01 05:46:48;;;;;;;5.65;3.35;;;;;;;;;;4932938;29;20385;-46
2022/09/01 05:49:15;;;;;;;3.10;2.33;;;;;;;;;;4933999;29;20493;-46
2022/09/01 05:51:50;;;;;;;8.65;3.20;;;;;;;;;;4934287;29;20062;-46
2022/09/01 05:54:18;;;;;;;8.73;4.53;;;;;;;;;;4934219;29;20040;-44
2022/09/01 05:56:43;;;;;;;4.97;4.30;;;;;;;;;;4934165;29;20023;-47
2022/09/01 05:59:10;;;;;;;3.35;2.90;;;;;;;;;;4935145;29;20119;-49
2022/09/01 06:01:40;;;;;;;4.00;3.60;;;;;;;;;;4935923;29;20035;-47
2022/09/01 06:04:08;;;;;;;5.78;4.00;;;;;;;;;;4935924;29;20032;-45
2022/09/01 06:06:39;;;;;;;5.45;3.88;;;;;;;;;;4935676;29;20542;-46
2022/09/01 06:09:07;;;;;;;4.38;2.53;;;;;;;;;;4935526;29;20499;-50
2022/09/01 06:11:32;;;;;;;11.07;3.75;;;;;;;;;;4935480;29;20555;-49
2022/09/01 06:13:59;;;;;;;6.35;3.15;;;;;;;;;;4935592;29;20159;-49
2022/09/01 06:16:27;;;;;;;5.35;3.25;;;;;;;;;;4935751;29;20035;-44
2022/09/01 06:18:52;;;;;;;5.25;4.40;;;;;;;;;;4935438;29;20031;-44
2022/09/01 06:21:20;;;;;;;5.13;4.13;;;;;;;;;;4935344;29;20384;-47
2022/09/01 06:23:49;;;;;;;4.28;3.38;;;;;;;;;;4935395;29;20035;-47
2022/09/01 06:26:22;;;;;;;9.50;7.65;;;;;;;;;;4935077;29;20028;-53
2022/09/01 06:28:49;;;;;;;9.50;7.60;;;;;;;;;;4935654;29;20040;-47
2022/09/01 06:31:16;;;;;;;6.05;4.15;;;;;;;;;;4935287;29;20024;-45
2022/09/01 06:33:42;;;;;;;7.93;4.90;;;;;;;;;;4935181;29;20039;-47
2022/09/01 06:36:08;;;;;;;5.25;3.75;;;;;;;;;;4935181;29;20024;-48
2022/09/01 06:38:34;;;;;;;4.82;4.28;;;;;;;;;;4935434;29;20032;-48
2022/09/01 06:41:09;;;;;;;5.28;4.10;;;;;;;;;;4935450;29;20032;-46
2022/09/01 06:43:35;;;;;;;8.02;5.10;;;;;;;;;;4935222;29;20110;-45
2022/09/01 06:46:01;;;;;;;6.13;5.18;;;;;;;;;;4935286;29;20106;-50
2022/09/01 06:48:29;;;;;;;13.35;10.18;;;;;;;;;;4934853;29;20556;-52
2022/09/01 06:51:01;;;;;;;6.70;5.25;;;;;;;;;;4934993;29;20039;-48
2022/09/01 06:53:29;;;;;;;5.07;4.57;;;;;;;;;;4935721;29;20027;-51
2022/09/01 06:55:55;;;;;;;5.68;4.43;;;;;;;;;;4935311;29;20023;-46
2022/09/01 06:58:21;;;;;;;9.27;5.68;;;;;;;;;;4935001;29;20522;-47
2022/09/01 07:00:48;;;;;;;12.02;7.82;;;;;;;;;;4935275;29;20047;-45
2022/09/01 07:03:14;;;;;;;14.63;11.43;;;;;;;;;;4934946;29;20109;-49
2022/09/01 07:05:43;;;;;;;11.13;8.93;;;;;;;;;;4934926;29;20035;-45
2022/09/01 07:08:12;;;;;;;10.00;8.55;;;;;;;;;;4935138;29;20384;-50
2022/09/01 07:10:44;;;;;;;12.25;10.30;;;;;;;;;;4934866;29;20086;-48
2022/09/01 07:13:16;;;;;;;11.63;7.43;;;;;;;;;;4935021;29;20455;-53
2022/09/01 07:15:43;;;;;;;6.95;6.03;;;;;;;;;;4934823;29;20027;-51
2022/09/01 07:18:11;;;;;;;7.65;5.47;;;;;;;;;;4935063;29;20043;-50
2022/09/01 07:20:40;;;;;;;7.82;5.63;;;;;;;;;;4935105;29;20034;-44
2022/09/01 07:23:07;;;;;;;4.28;3.80;;;;;;;;;;4934865;29;20038;-47
2022/09/01 07:25:35;;;;;;;3.90;3.40;;;;;;;;;;4933619;29;20027;-54
2022/09/01 07:28:02;;;;;;;6.18;4.35;;;;;;;;;;4934392;29;20071;-50
2022/09/01 07:30:27;;;;;;;5.25;3.30;;;;;;;;;;4934997;29;20052;-53
2022/09/01 07:32:54;;;;;;;3.35;2.60;;;;;;;;;;4934975;29;20056;-52
2022/09/01 07:35:21;;;;;;;4.07;2.40;;;;;;;;;;4934958;29;20032;-50
2022/09/01 07:37:47;;;;;;;4.15;2.80;;;;;;;;;;4934623;29;20086;-45
2022/09/01 07:40:17;;;;;;;4.53;3.00;;;;;;;;;;4934841;29;20369;-49
2022/09/01 07:42:48;;;;;;;6.95;3.85;;;;;;;;;;4935504;29;20031;-47
2022/09/01 07:45:15;;;;;;;;;;;;;;;;;;4938535;29;20031;-49
2022/09/01 07:47:42;;;;;;;4.07;2.75;;;;;;;;;;4938365;29;19927;-52
2022/09/01 07:50:11;;;;;;;3.08;2.75;;;;;;;;;;4937880;29;20067;-51
2022/09/01 07:52:48;;;;;;;3.90;3.50;;;;;;;;;;4938188;29;20035;-43
2022/09/01 07:55:15;;;;;;;4.07;2.95;;;;;;;;;;4937983;29;20387;-48
2022/09/01 07:57:44;;;;;;;4.72;3.10;;;;;;;;;;4936590;29;20173;-52
2022/09/01 08:00:14;;;;;;;5.18;2.85;;;;;;;;;;4938191;29;20032;-52
2022/09/01 08:02:43;;;;;;;2.72;2.53;;;;;;;;;;4938162;29;20038;-49
2022/09/01 08:05:13;;;;;;;6.82;2.90;;;;;;;;;;4938005;29;20027;-50
2022/09/01 08:07:39;;;;;;;4.85;2.50;;;;;;;;;;4937860;29;20035;-51
2022/09/01 08:10:06;;;;;;;3.40;2.70;;;;;;;;;;4937901;29;20042;-51
2022/09/01 08:12:33;;;;;;;4.32;3.42;;;;;;;;;;4937612;29;20114;-53
2022/09/01 08:15:01;;;;;;;4.45;3.10;;;;;;;;;;4937635;29;20043;-51
2022/09/01 08:17:26;;;;;;;5.57;2.95;;;;;;;;;;4937808;29;20110;-52
2022/09/01 08:19:52;;;;;;;4.65;2.80;;;;;;;;;;4937704;29;20106;-45
2022/09/01 08:22:22;;;;;;;4.53;2.40;;;;;;;;;;4937708;29;20099;-51
2022/09/01 08:24:48;;;;;;;3.53;2.22;;;;;;;;;;4937689;29;20463;-51
2022/09/01 08:27:13;;;;;;;3.42;2.63;;;;;;;;;;4937651;29;20035;-51
2022/09/01 08:29:39;;;;;;;2.85;2.65;;;;;;;;;;4937337;29;20543;-53
2022/09/01 08:32:04;;;;;;;5.53;2.80;;;;;;;;;;4937298;29;20476;-43
2022/09/01 08:34:32;;;;;;;2.97;2.50;;;;;;;;;;4937262;29;20024;-49
2022/09/01 08:36:57;;;;;;;3.83;3.20;;;;;;;;;;4937470;29;20024;-51
2022/09/01 08:39:23;;;;;;;7.82;2.80;;;;;;;;;;4937120;29;20031;-53
2022/09/01 08:42:13;;;;;;;2.75;2.40;;;;;;;;;;4937350;29;20531;-48
2022/09/01 08:45:00;;;;;;;6.43;2.90;;;;;;;;;;4937047;29;20063;-44
2022/09/01 08:47:26;;;;;;;4.57;2.63;;;;;;;;;;4936933;29;20036;-53
2022/09/01 08:49:51;;;;;;;4.00;2.75;;;;;;;;;;4936840;29;20408;-52
2022/09/01 08:52:28;;;;;;;5.00;2.42;;;;;;;;;;4937163;29;20024;-49
2022/09/01 08:55:01;;;;;;;6.45;2.42;;;;;;;;;;4935893;29;20024;-53
2022/09/01 08:57:56;;;;;;;4.05;2.22;;;;;;;;;;4936428;29;20513;-51
2022/09/01 09:00:27;;;;;;;8.38;3.03;;;;;;;;;;4933717;29;20112;-51
2022/09/01 09:03:12;;;;;;;2.03;1.83;;;;;;;;;;4936939;29;20075;-47
2022/09/01 09:06:10;;;;;;;4.80;2.20;;;;;;;;;;4936604;29;20023;-54
2022/09/01 09:08:57;;;;;;;4.32;2.03;;;;;;;;;;4936577;29;20136;-49
2022/09/01 09:11:33;;;;;;;3.30;2.13;;;;;;;;;;4936560;29;20038;-50
2022/09/01 09:14:22;;;;;;;6.38;2.55;;;;;;;;;;4935315;29;20199;-46
2022/09/01 09:16:49;;;;;;;2.78;2.45;;;;;;;;;;4907289;29;20043;-47
2022/09/01 09:19:34;;;;;;;3.88;2.45;;;;;;;;;;4935616;29;20385;-51
2022/09/01 09:22:03;;;;;;;10.35;2.58;;;;;;;;;;4936498;29;20023;-47
2022/09/01 09:24:49;;;;;;;2.80;2.13;;;;;;;;;;4935487;29;20032;-47
2022/09/01 09:27:18;;;;;;;3.63;2.30;;;;;;;;;;4936065;29;20432;-41
2022/09/01 09:29:55;;;;;;;5.07;2.22;;;;;;;;;;4936158;29;20027;-45
2022/09/01 09:32:23;;;;;;;7.18;2.15;;;;;;;;;;4935951;29;20112;-48
2022/09/01 09:34:49;;;;;;;4.93;2.25;;;;;;;;;;4934313;29;20027;-52
2022/09/01 09:37:20;;;;;;;5.20;2.30;;;;;;;;;;4934627;29;20492;-44
2022/09/01 09:40:16;;;;;;;5.57;2.60;;;;;;;;;;4936022;29;20028;-44
2022/09/01 09:43:00;;;;;;;5.22;2.95;;;;;;;;;;4935849;29;20034;-51
2022/09/01 09:45:37;;;;;;;2.70;2.40;;;;;;;;;;4930908;29;20368;-46
2022/09/01 09:48:27;;;;;;;4.28;2.47;;;;;;;;;;4934943;29;20506;-45
2022/09/01 09:50:53;;;;;;;5.60;2.40;;;;;;;;;;4934709;29;20066;-44
2022/09/01 09:53:31;;;;;;;2.70;2.30;;;;;;;;;;4934150;29;20035;-51
2022/09/01 09:56:02;;;;;;;3.60;2.03;;;;;;;;;;4932718;29;20035;-48
2022/09/01 09:58:36;;;;;;;3.60;2.63;;;;;;;;;;4934215;29;20492;-43
2022/09/01 10:01:15;;;;;;;5.70;2.50;;;;;;;;;;4934198;29;20039;-49
2022/09/01 10:03:50;;;;;;;3.38;2.65;;;;;;;;;;4934119;29;20483;-43
2022/09/01 10:06:44;;;;;;;9.18;2.50;;;;;;;;;;4933665;29;20056;-47
2022/09/01 10:09:22;;;;;;;4.90;2.30;;;;;;;;;;4920948;29;20040;-47
2022/09/01 10:11:54;;;;;;;4.75;2.08;;;;;;;;;;4933958;29;20047;-48
2022/09/01 10:14:33;;;;;;;4.60;1.85;;;;;;;;;;4934140;29;20424;-44
2022/09/01 10:17:08;;;;;;;2.95;1.80;;;;;;;;;;4932579;29;20027;-45
2022/09/01 10:19:34;;;;;;;2.35;1.70;;;;;;;;;;4933782;29;20046;-49
2022/09/01 10:22:01;;;;;;;4.43;2.00;;;;;;;;;;4934067;29;20059;-46
2022/09/01 10:24:34;;;;;;;3.50;2.45;;;;;;;;;;4933756;29;20023;-47
2022/09/01 10:27:02;;;;;;;7.90;1.95;;;;;;;;;;4933757;29;20369;-43
2022/09/01 10:29:33;;;;;;;2.78;2.10;;;;;;;;;;4933605;29;20094;-43
2022/09/01 10:32:01;;;;;;;2.35;1.90;;;;;;;;;;4932491;29;20087;-47
2022/09/01 10:34:32;;;;;;;5.18;1.75;;;;;;;;;;4933521;29;20480;-44
2022/09/01 10:36:59;;;;;;;2.88;2.10;;;;;;;;;;4933614;29;20042;-50
2022/09/01 10:39:24;;;;;;;2.47;1.90;;;;;;;;;;4933482;29;20032;-48
2022/09/01 10:41:52;;;;;;;3.65;1.80;;;;;;;;;;4933606;29;20070;-45
2022/09/01 10:44:21;;;;;;;3.97;1.90;;;;;;;;;;4933547;29;20066;-45
2022/09/01 10:46:48;;;;;;;7.57;2.63;;;;;;;;;;4933268;29;20043;-43
2022/09/01 10:49:29;;;;;;;2.42;2.20;;;;;;;;;;4933162;29;20048;-44
2022/09/01 10:51:56;;;;;;;6.13;2.35;;;;;;;;;;4933513;29;20479;-47
2022/09/01 10:54:39;;;;;;;4.72;2.20;;;;;;;;;;4933471;29;20488;-43
2022/09/01 10:57:43;;;;;;;3.20;2.08;;;;;;;;;;4933467;29;20107;-45
2022/09/01 11:00:29;;;;;;;3.28;2.25;;;;;;;;;;4931643;29;20127;-45
2022/09/01 11:03:12;;;;;;;5.43;2.50;;;;;;;;;;4923046;29;20497;-45
2022/09/01 11:05:53;;;;;;;6.95;2.78;;;;;;;;;;4933429;29;20500;-46
2022/09/01 11:08:27;;;;;;;3.92;2.40;;;;;;;;;;4933159;29;20043;-46
2022/09/01 11:11:15;;;;;;;3.70;2.30;;;;;;;;;;4932884;29;20027;-46
2022/09/01 11:13:42;;;;;;;2.85;1.80;;;;;;;;;;4933119;29;20071;-47
2022/09/01 11:16:35;;;;;;;6.43;2.38;;;;;;;;;;4931820;29;20035;-45
2022/09/01 11:19:31;;;;;;;2.63;2.03;;;;;;;;;;4935956;29;20035;-45
2022/09/01 11:22:12;;;;;;;2.17;1.83;;;;;;;;;;4936918;29;20028;-45
2022/09/01 11:24:37;;;;;;;7.25;2.75;;;;;;;;;;4937105;29;20052;-46
2022/09/01 11:27:31;;;;;;;2.35;1.83;;;;;;;;;;4936989;29;20071;-47
2022/09/01 11:30:06;;;;;;;3.13;2.00;;;;;;;;;;4936732;29;20032;-46
2022/09/01 11:32:36;;;;;;;10.93;2.45;;;;;;;;;;4936716;29;20059;-45
2022/09/01 11:35:04;;;;;;;6.47;2.45;;;;;;;;;;4936925;29;20051;-45
2022/09/01 11:37:32;;;;;;;3.90;2.40;;;;;;;;;;4936679;29;20057;-45
2022/09/01 11:40:01;;;;;;;3.97;2.30;;;;;;;;;;4936546;29;20028;-44
2022/09/01 11:42:36;;;;;;;3.08;2.13;;;;;;;;;;4936611;29;20039;-44
2022/09/01 11:45:10;;;;;;;2.83;2.25;;;;;;;;;;4936872;29;20046;-44
2022/09/01 11:47:42;;;;;;;5.03;2.13;;;;;;;;;;4935080;29;20383;-49
2022/09/01 11:50:31;;;;;;;2.75;2.40;;;;;;;;;;4936157;29;20519;-48
2022/09/01 11:53:10;;;;;;;4.80;2.40;;;;;;;;;;4936720;29;20483;-43
2022/09/01 11:55:48;;;;;;;3.80;2.17;;;;;;;;;;4935359;29;20054;-45
2022/09/01 11:58:33;;;;;;;5.10;2.50;;;;;;;;;;4936574;29;20024;-47
2022/09/01 12:01:18;;;;;;;3.10;2.05;;;;;;;;;;4936491;29;20062;-47
2022/09/01 12:03:46;;;;;;;3.05;1.95;;;;;;;;;;4936495;29;20079;-45
2022/09/01 12:06:23;;;;;;;3.13;2.00;;;;;;;;;;4935869;29;20023;-45
2022/09/01 12:08:55;;;;;;;3.63;2.50;;;;;;;;;;4936155;29;20103;-44
2022/09/01 12:11:26;;;;;;;3.60;2.33;;;;;;;;;;4936269;29;20036;-45
2022/09/01 12:14:06;;;;;;;3.20;2.30;;;;;;;;;;4935103;29;20107;-47
2022/09/01 12:16:35;;;;;;;4.45;3.58;;;;;;;;;;4935862;29;20039;-47
2022/09/01 12:19:03;;;;;;;4.68;2.22;;;;;;;;;;4936219;29;20032;-43
2022/09/01 12:21:32;;;;;;;3.22;2.28;;;;;;;;;;4936107;29;20028;-46
2022/09/01 12:24:18;;;;;;;5.55;2.05;;;;;;;;;;4935863;29;20031;-47
2022/09/01 12:26:46;;;;;;;5.05;2.40;;;;;;;;;;4935704;29;20408;-45
2022/09/01 12:29:13;;;;;;;5.03;1.98;;;;;;;;;;4936042;29;20028;-45
2022/09/01 12:31:43;;;;;;;3.00;2.22;;;;;;;;;;4935795;29;20566;-45
2022/09/01 12:34:26;;;;;;;5.05;2.28;;;;;;;;;;4935935;29;20023;-47
2022/09/01 12:37:13;;;;;;;3.05;1.90;;;;;;;;;;4935608;29;20063;-43
2022/09/01 12:39:42;;;;;;;3.53;2.20;;;;;;;;;;4935392;29;20035;-48
2022/09/01 12:42:18;;;;;;;3.25;1.85;;;;;;;;;;4935193;29;20424;-46
2022/09/01 12:44:47;;;;;;;5.68;1.90;;;;;;;;;;4935269;29;20023;-47
2022/09/01 12:47:32;;;;;;;1.80;1.70;;;;;;;;;;4933863;29;20044;-45
2022/09/01 12:50:00;;;;;;;6.18;1.98;;;;;;;;;;4934994;29;20048;-48
2022/09/01 12:52:34;;;;;;;5.75;2.20;;;;;;;;;;4935088;29;20028;-49
2022/09/01 12:55:04;;;;;;;3.90;2.42;;;;;;;;;;4935136;29;20028;-44
2022/09/01 12:57:38;;;;;;;4.30;2.08;;;;;;;;;;4934517;29;20189;-46
2022/09/01 13:00:10;;;;;;;3.63;1.92;;;;;;;;;;4935244;29;20043;-48
2022/09/01 13:02:51;;;;;;;10.07;2.72;;;;;;;;;;4935392;29;20083;-41
2022/09/01 13:05:21;;;;;;;4.95;2.10;;;;;;;;;;4935025;29;20531;-47
2022/09/01 13:07:47;;;;;;;4.43;2.42;;;;;;;;;;4935057;29;20043;-43
2022/09/01 13:10:13;;;;;;;4.90;2.40;;;;;;;;;;4933922;29;20036;-44
2022/09/01 13:12:42;;;;;;;4.80;2.10;;;;;;;;;;4935174;29;20031;-47
2022/09/01 13:15:09;;;;;;;4.85;2.50;;;;;;;;;;4933645;29;20028;-50
2022/09/01 13:17:36;;;;;;;2.83;2.28;;;;;;;;;;4934932;29;20110;-47
2022/09/01 13:20:02;;;;;;;3.95;2.88;;;;;;;;;;4935150;29;20027;-48
2022/09/01 13:22:28;;;;;;;2.83;2.38;;;;;;;;;;4934810;29;20127;-40
2022/09/01 13:24:53;;;;;;;3.42;2.42;;;;;;;;;;4934807;29;20102;-46
2022/09/01 13:27:20;;;;;;;6.72;2.40;;;;;;;;;;4934591;29;20387;-44
2022/09/01 13:29:46;;;;;;;7.63;2.72;;;;;;;;;;4934649;29;20032;-46
2022/09/01 13:32:11;;;;;;;3.63;2.58;;;;;;;;;;4934691;29;20601;-46
2022/09/01 13:34:38;;;;;;;3.10;2.45;;;;;;;;;;4934144;29;20032;-44
2022/09/01 13:37:04;;;;;;;4.25;2.50;;;;;;;;;;4934795;29;20086;-43
2022/09/01 13:39:29;;;;;;;3.75;2.70;;;;;;;;;;4934606;29;20035;-44
2022/09/01 13:41:55;;;;;;;4.72;3.03;;;;;;;;;;4933896;29;20031;-45
2022/09/01 13:44:21;;;;;;;5.43;2.40;;;;;;;;;;4934295;29;20032;-43
2022/09/01 13:46:46;;;;;;;9.73;3.05;;;;;;;;;;4934073;29;20035;-41
2022/09/01 13:49:12;;;;;;;6.05;3.00;;;;;;;;;;4932706;29;20051;-47
2022/09/01 13:51:39;;;;;;;3.20;2.90;;;;;;;;;;4934268;29;20034;-49
2022/09/01 13:54:04;;;;;;;2.65;2.45;;;;;;;;;;4934323;29;20106;-39
2022/09/01 13:56:30;;;;;;;8.00;3.90;;;;;;;;;;4934171;29;20135;-40
2022/09/01 13:58:55;;;;;;;6.07;3.60;;;;;;;;;;4934028;29;20035;-41
2022/09/01 14:01:21;;;;;;;5.35;3.83;;;;;;;;;;4933979;29;20028;-44
2022/09/01 14:03:48;;;;;;;5.68;4.10;;;;;;;;;;4934136;29;20036;-41
2022/09/01 14:06:14;;;;;;;7.20;4.82;;;;;;;;;;4934204;29;20028;-45
2022/09/01 14:08:39;;;;;;;9.30;5.22;;;;;;;;;;4933907;29;20554;-47
2022/09/01 14:11:05;;;;;;;9.77;4.53;;;;;;;;;;4933904;29;20027;-47
2022/09/01 14:13:33;;;;;;;6.70;5.22;;;;;;;;;;4934213;29;20059;-45
2022/09/01 14:15:59;;;;;;;6.85;4.95;;;;;;;;;;4932384;29;20058;-46
2022/09/01 14:18:31;;;;;;;6.30;4.78;;;;;;;;;;4933552;29;20433;-44
2022/09/01 14:21:00;;;;;;;8.77;5.00;;;;;;;;;;4933686;29;20035;-45
2022/09/01 14:23:25;;;;;;;5.32;4.82;;;;;;;;;;4933740;29;20389;-44
2022/09/01 14:25:51;;;;;;;5.97;4.53;;;;;;;;;;4933478;29;20055;-46
2022/09/01 14:28:18;;;;;;;12.82;5.10;;;;;;;;;;4933889;29;20488;-49
2022/09/01 14:30:45;;;;;;;7.15;4.32;;;;;;;;;;4932325;29;20036;-47
2022/09/01 14:33:11;;;;;;;6.00;4.25;;;;;;;;;;4932637;29;20416;-49
2022/09/01 14:35:39;;;;;;;5.60;3.90;;;;;;;;;;4933636;29;20170;-48
2022/09/01 14:38:07;;;;;;;7.30;4.95;;;;;;;;;;4933596;29;20035;-48
2022/09/01 14:40:36;;;;;;;5.40;4.90;;;;;;;;;;4933865;29;20125;-42
2022/09/01 14:43:02;;;;;;;8.30;5.35;;;;;;;;;;4933254;29;20024;-41
2022/09/01 14:45:27;;;;;;;6.50;4.90;;;;;;;;;;4932245;29;20114;-39
2022/09/01 14:47:56;;;;;;;6.25;4.78;;;;;;;;;;4933784;29;20612;-44
2022/09/01 14:50:22;;;;;;;7.72;5.35;;;;;;;;;;4933105;29;20052;-41
2022/09/01 14:52:51;;;;;;;6.85;5.05;;;;;;;;;;4932768;29;20045;-40
2022/09/01 14:55:17;;;;;;;6.57;4.60;;;;;;;;;;4937457;29;20038;-46
2022/09/01 14:57:43;;;;;;;7.68;5.72;;;;;;;;;;4937408;29;20503;-46
2022/09/01 15:00:11;;;;;;;7.00;5.05;;;;;;;;;;4937397;29;20036;-44
2022/09/01 15:02:38;;;;;;;7.13;4.50;;;;;;;;;;4937173;29;20083;-48
2022/09/01 15:05:04;;;;;;;6.70;4.65;;;;;;;;;;4919945;29;20036;-49
2022/09/01 15:07:29;;;;;;;6.82;4.38;;;;;;;;;;4936665;29;20084;-41